Time;durP1;ratioP1;P1;durP2;ratioP2;P2;SDS_P1;SDS_P2;PMS_P1;PMS_P2;Temp;Humidity;BMP_temperature;BMP_pressure;BME280_temperature;BME280_humidity;BME280_pressure;Samples;Min_cycle;Max_cycle;Signal;HPM_P1;HPM_P2
2023/04/24 00:00:05;;;;;;;;;;;;;;;28.59;25.83;100703.97;5104386;28;1066;-33
2023/04/24 00:02:31;;;;;;;;;;;;;;;28.88;25.12;100709.44;5116850;28;1045;-37
2023/04/24 00:04:57;;;;;;;;;;;;;;;28.88;25.21;100712.13;5116893;28;1026;-38
2023/04/24 00:07:22;;;;;;;;;;;;;;;28.92;24.95;100699.88;5117287;28;1066;-38
2023/04/24 00:09:48;;;;;;;;;;;;;;;28.48;26.04;100694.53;5117134;28;1078;-35
2023/04/24 00:12:13;;;;;;;;;;;;;;;28.82;25.44;100696.69;5103659;28;1126;-37
2023/04/24 00:14:39;;;;;;;;;;;;;;;28.46;25.51;100695.75;5098955;28;1058;-35
2023/04/24 00:17:04;;;;;;;;;;;;;;;29.19;25.05;100697.41;5116122;28;1980;-34
2023/04/24 00:19:30;;;;;;;;;;;;;;;28.66;25.48;100689.69;5104271;28;1081;-35
2023/04/24 00:21:55;;;;;;;;;;;;;;;28.59;25.76;100689.63;5109226;28;1098;-37
2023/04/24 00:24:21;;;;;;;;;;;;;;;28.92;25.50;100680.09;5116524;28;931;-36
2023/04/24 00:26:46;;;;;;;;;;;;;;;28.73;25.34;100679.72;5116453;28;1054;-38
2023/04/24 00:29:12;;;;;;;;;;;;;;;28.93;25.24;100677.19;5090697;28;1161;-35
2023/04/24 00:31:37;;;;;;;;;;;;;;;28.54;25.62;100678.53;5092558;28;1200;-36
2023/04/24 00:34:03;;;;;;;;;;;;;;;28.75;25.37;100679.53;5109128;28;1142;-36
2023/04/24 00:36:30;;;;;;;;;;;;;;;28.42;25.59;100678.22;5110986;28;1972;-37
2023/04/24 00:38:56;;;;;;;;;;;;;;;29.03;25.13;100681.47;5098094;28;1034;-39
2023/04/24 00:41:21;;;;;;;;;;;;;;;28.68;25.70;100684.91;5116072;28;1062;-34
2023/04/24 00:43:47;;;;;;;;;;;;;;;28.58;25.70;100682.53;5100463;28;1049;-38
2023/04/24 00:46:13;;;;;;;;;;;;;;;28.94;25.01;100691.56;5120727;28;1128;-35
2023/04/24 00:48:39;;;;;;;;;;;;;;;28.91;25.40;100687.38;5113330;28;851;-35
2023/04/24 00:51:04;;;;;;;;;;;;;;;28.91;24.70;100684.66;5100679;28;1160;-39
2023/04/24 00:53:30;;;;;;;;;;;;;;;28.58;25.72;100687.94;5120697;28;986;-34
2023/04/24 00:55:56;;;;;;;;;;;;;;;28.82;25.41;100689.41;5107049;28;1902;-34
2023/04/24 00:58:21;;;;;;;;;;;;;;;28.80;25.15;100694.16;5095515;28;1198;-36
2023/04/24 01:00:47;;;;;;;;;;;;;;;28.84;25.30;100694.63;5069032;28;1473;-34
2023/04/24 01:03:13;;;;;;;;;;;;;;;28.52;25.74;100699.53;5065281;28;1114;-35
2023/04/24 01:05:38;;;;;;;;;;;;;;;28.65;25.89;100698.81;5114178;28;1050;-36
2023/04/24 01:08:05;;;;;;;;;;;;;;;28.67;25.59;100696.75;5106783;28;1251;-32
2023/04/24 01:10:31;;;;;;;;;;;;;;;29.19;24.79;100691.16;5107117;28;1177;-36
2023/04/24 01:12:57;;;;;;;;;;;;;;;28.51;25.68;100690.56;5120056;28;867;-36
2023/04/24 01:15:23;;;;;;;;;;;;;;;28.53;26.02;100696.63;5106175;28;1972;-35
2023/04/24 01:17:48;;;;;;;;;;;;;;;28.75;25.33;100690.38;5120348;28;1005;-33
2023/04/24 01:20:14;;;;;;;;;;;;;;;28.53;25.57;100683.13;5106722;28;1138;-36
2023/04/24 01:22:41;;;;;;;;;;;;;;;28.93;25.33;100682.59;5094292;28;1194;-37
2023/04/24 01:25:06;;;;;;;;;;;;;;;28.51;25.79;100678.94;5101631;28;1066;-37
2023/04/24 01:27:32;;;;;;;;;;;;;;;28.59;25.71;100676.91;5119968;28;1112;-34
2023/04/24 01:29:57;;;;;;;;;;;;;;;28.88;25.30;100679.63;5119831;28;1097;-35
2023/04/24 01:32:23;;;;;;;;;;;;;;;28.78;25.33;100673.75;5106263;28;1193;-33
2023/04/24 01:34:49;;;;;;;;;;;;;;;28.62;25.20;100675.69;5119898;28;1129;-34
2023/04/24 01:37:15;;;;;;;;;;;;;;;28.45;26.05;100681.38;5088132;28;1901;-36
2023/04/24 01:39:41;;;;;;;;;;;;;;;28.65;25.61;100674.47;5119552;28;1029;-35
2023/04/24 01:42:06;;;;;;;;;;;;;;;28.28;25.72;100672.66;5119549;28;1002;-38
2023/04/24 01:44:33;;;;;;;;;;;;;;;28.74;25.40;100670.59;5101658;28;1026;-33
2023/04/24 01:46:58;;;;;;;;;;;;;;;28.46;25.77;100669.53;5106247;28;1000;-35
2023/04/24 01:49:23;;;;;;;;;;;;;;;28.40;25.93;100678.41;5100974;28;1093;-32
2023/04/24 01:51:49;;;;;;;;;;;;;;;28.70;25.65;100680.97;5100706;28;1159;-38
2023/04/24 01:54:14;;;;;;;;;;;;;;;28.50;25.44;100677.25;5100759;28;1038;-34
2023/04/24 01:56:41;;;;;;;;;;;;;;;28.36;25.80;100674.44;5112834;28;1989;-36
2023/04/24 01:59:06;;;;;;;;;;;;;;;28.62;25.50;100669.44;5112840;28;1134;-35
2023/04/24 02:01:38;;;;;;;;;;;;;;;28.68;25.75;100668.66;5087833;28;1098;-36
2023/04/24 02:04:04;;;;;;;;;;;;;;;28.35;25.67;100665.47;5099985;28;1184;-35
2023/04/24 02:06:31;;;;;;;;;;;;;;;28.33;25.79;100661.28;5088982;28;1339;-36
2023/04/24 02:08:57;;;;;;;;;;;;;;;28.40;26.14;100654.06;5100968;28;1152;-35
2023/04/24 02:11:22;;;;;;;;;;;;;;;28.49;25.69;100657.50;5092963;28;1111;-31
2023/04/24 02:13:51;;;;;;;;;;;;;;;28.81;25.24;100657.13;5095288;28;1134;-32
2023/04/24 02:16:17;;;;;;;;;;;;;;;28.35;25.80;100656.50;5092492;28;1913;-34
2023/04/24 02:18:42;;;;;;;;;;;;;;;28.90;25.40;100655.06;5112538;28;1046;-36
2023/04/24 02:21:08;;;;;;;;;;;;;;;28.54;25.55;100654.19;5105052;28;1062;-32
2023/04/24 02:23:34;;;;;;;;;;;;;;;28.78;25.37;100647.50;5113713;28;1038;-35
2023/04/24 02:26:00;;;;;;;;;;;;;;;28.31;25.49;100647.09;5118393;28;914;-32
2023/04/24 02:28:25;;;;;;;;;;;;;;;28.17;25.95;100648.81;5117268;28;1175;-37
2023/04/24 02:30:51;;;;;;;;;;;;;;;28.40;25.98;100651.38;5106763;28;1113;-33
2023/04/24 02:33:16;;;;;;;;;;;;;;;28.54;25.95;100654.19;5086867;28;1508;-32
2023/04/24 02:35:42;;;;;;;;;;;;;;;28.63;25.38;100654.91;5100501;28;1968;-36
2023/04/24 02:38:07;;;;;;;;;;;;;;;28.47;25.68;100654.97;5118253;28;1088;-37
2023/04/24 02:40:33;;;;;;;;;;;;;;;28.33;26.12;100650.47;5118422;28;1073;-34
2023/04/24 02:42:58;;;;;;;;;;;;;;;28.29;26.29;100651.84;5117006;28;1073;-38
2023/04/24 02:45:24;;;;;;;;;;;;;;;28.65;25.61;100660.94;5105801;28;1051;-36
2023/04/24 02:47:49;;;;;;;;;;;;;;;28.26;25.74;100658.47;5099134;28;1122;-37
2023/04/24 02:50:15;;;;;;;;;;;;;;;28.70;25.35;100651.19;5106234;28;865;-36
2023/04/24 02:52:40;;;;;;;;;;;;;;;28.46;25.89;100652.47;5085637;28;1314;-32
2023/04/24 02:55:07;;;;;;;;;;;;;;;28.51;25.74;100647.28;5098014;28;1977;-34
2023/04/24 02:57:33;;;;;;;;;;;;;;;28.75;25.46;100649.75;5094066;28;1221;-36
2023/04/24 02:59:59;;;;;;;;;;;;;;;28.59;25.61;100649.03;5105106;28;1011;-37
2023/04/24 03:02:25;;;;;;;;;;;;;;;28.38;25.59;100653.41;5099334;28;1179;-33
2023/04/24 03:04:50;;;;;;;;;;;;;;;28.34;26.12;100649.44;5105220;28;1166;-33
2023/04/24 03:07:16;;;;;;;;;;;;;;;28.47;26.09;100646.00;5117013;28;1143;-31
2023/04/24 03:09:42;;;;;;;;;;;;;;;28.67;25.19;100654.31;5118090;28;1050;-34
2023/04/24 03:12:07;;;;;;;;;;;;;;;28.56;25.36;100657.53;5118106;28;1022;-36
2023/04/24 03:14:33;;;;;;;;;;;;;;;28.41;25.54;100654.91;5103922;28;940;-34
2023/04/24 03:16:58;;;;;;;;;;;;;;;28.39;25.99;100655.13;5104431;28;1905;-36
2023/04/24 03:19:24;;;;;;;;;;;;;;;28.60;25.53;100658.81;5111591;28;1173;-30
2023/04/24 03:21:59;;;;;;;;;;;;;;;28.31;24.71;100647.09;5086377;28;1205;-34
2023/04/24 03:24:27;;;;;;;;;;;;;;;25.68;23.81;100649.19;5084623;28;1652;-34
2023/04/24 03:26:56;;;;;;;;;;;;;;;26.39;27.05;100650.09;5095914;28;1347;-35
2023/04/24 03:29:47;;;;;;;;;;;;;;;27.20;24.85;100655.13;5092263;28;1083;-37
2023/04/24 03:32:14;;;;;;;;;;;;;;;27.17;23.59;100650.09;5084860;28;1595;-35
2023/04/24 03:34:41;;;;;;;;;;;;;;;27.30;23.15;100650.28;5087793;28;1183;-34
2023/04/24 03:37:08;;;;;;;;;;;;;;;27.57;23.12;100652.50;5083337;28;1922;-34
2023/04/24 03:39:39;;;;;;;;;;;;;;;26.68;21.50;100653.06;5099334;28;1261;-33
2023/04/24 03:42:04;;;;;;;;;;;;;;;23.69;24.98;100656.22;5093783;28;1114;-33
2023/04/24 03:44:41;;;;;;;;;;;;;;;25.76;24.51;100658.22;5092482;28;1174;-35
2023/04/24 03:47:07;;;;;;;;;;;;;;;27.80;21.70;100657.78;5086261;28;1097;-37
2023/04/24 03:49:33;;;;;;;;;;;;;;;28.28;21.29;100661.00;5085377;28;2091;-35
2023/04/24 03:51:58;;;;;;;;;;;;;;;28.39;21.72;100660.53;5099017;28;1069;-34
2023/04/24 03:54:26;;;;;;;;;;;;;;;28.72;21.93;100661.81;5085518;28;1264;-35
2023/04/24 03:56:53;;;;;;;;;;;;;;;28.87;21.69;100660.88;5085247;28;1902;-34
2023/04/24 03:59:19;;;;;;;;;;;;;;;26.61;23.50;100661.06;5092227;28;1365;-33
2023/04/24 04:01:49;;;;;;;;;;;;;;;26.28;23.76;100655.88;5085649;28;1250;-35
2023/04/24 04:04:16;;;;;;;;;;;;;;;28.30;22.13;100678.72;5082550;28;1324;-31
2023/04/24 04:06:44;;;;;;;;;;;;;;;28.53;21.65;100671.47;5078999;28;1309;-37
2023/04/24 04:09:10;;;;;;;;;;;;;;;28.15;21.72;100675.22;5078738;28;1381;-35
2023/04/24 04:11:36;;;;;;;;;;;;;;;26.34;23.36;100671.38;5078816;28;1239;-40
2023/04/24 04:14:01;;;;;;;;;;;;;;;25.89;24.37;100666.56;5078612;28;1242;-37
2023/04/24 04:16:27;;;;;;;;;;;;;;;27.82;22.16;100680.06;5078723;28;1974;-40
2023/04/24 04:18:59;;;;;;;;;;;;;;;28.39;21.71;100673.19;5078667;28;1740;-39
2023/04/24 04:21:24;;;;;;;;;;;;;;;28.67;21.90;100672.41;5083027;28;1286;-40
2023/04/24 04:23:56;;;;;;;;;;;;;;;27.33;23.99;100670.66;5079227;28;1389;-37
2023/04/24 04:26:32;;;;;;;;;;;;;;;27.67;23.52;100671.13;5088967;28;1242;-39
2023/04/24 04:29:03;;;;;;;;;;;;;;;28.15;23.42;100667.09;5078705;28;1332;-39
2023/04/24 04:31:30;;;;;;;;;;;;;;;28.51;23.30;100665.41;5078539;28;1261;-37
2023/04/24 04:33:59;;;;;;;;;;;;;;;28.81;22.99;100673.34;5078718;28;1335;-39
2023/04/24 04:36:25;;;;;;;;;;;;;;;27.92;24.64;100671.66;5078492;28;1902;-38
2023/04/24 04:38:59;;;;;;;;;;;;;;;28.24;24.20;100671.38;5082497;28;1114;-37
2023/04/24 04:41:56;;;;;;;;;;;;;;;28.35;23.83;100667.34;5089155;28;1130;-35
2023/04/24 04:44:27;;;;;;;;;;;;;;;27.45;24.92;100673.75;5078482;28;1180;-39
2023/04/24 04:46:56;;;;;;;;;;;;;;;27.58;25.33;100670.38;5078607;28;1223;-38
2023/04/24 04:49:31;;;;;;;;;;;;;;;28.35;24.93;100662.78;5079072;28;1621;-39
2023/04/24 04:51:57;;;;;;;;;;;;;;;28.80;24.38;100671.66;5106543;28;1065;-38
2023/04/24 04:54:25;;;;;;;;;;;;;;;27.72;25.27;100666.03;5078501;28;1131;-39
2023/04/24 04:56:50;;;;;;;;;;;;;;;27.97;24.89;100666.53;5078050;28;1979;-39
2023/04/24 04:59:16;;;;;;;;;;;;;;;28.42;25.43;100670.09;5096108;28;1054;-35
2023/04/24 05:01:41;;;;;;;;;;;;;;;28.28;24.65;100667.25;5080017;28;1135;-37
2023/04/24 05:04:08;;;;;;;;;;;;;;;28.23;24.78;100670.53;5083626;28;1272;-36
2023/04/24 05:06:34;;;;;;;;;;;;;;;27.92;26.03;100668.13;5078382;28;1321;-36
2023/04/24 05:08:59;;;;;;;;;;;;;;;28.23;25.43;100670.53;5077781;28;1278;-40
2023/04/24 05:11:41;;;;;;;;;;;;;;;28.70;24.87;100667.44;5078387;28;1344;-36
2023/04/24 05:14:07;;;;;;;;;;;;;;;28.03;25.39;100672.19;5079193;28;1325;-36
2023/04/24 05:16:37;;;;;;;;;;;;;;;27.24;26.76;100670.75;5078178;28;1970;-37
2023/04/24 05:19:04;;;;;;;;;;;;;;;28.09;26.10;100671.44;5078183;28;1192;-38
2023/04/24 05:21:34;;;;;;;;;;;;;;;28.11;25.19;100669.38;5083570;28;1201;-31
2023/04/24 05:24:00;;;;;;;;;;;;;;;26.17;28.02;100662.53;5098456;28;1289;-34
2023/04/24 05:27:02;;;;;;;;;;;;;;;26.83;27.51;100661.19;5037824;28;1175;-32
2023/04/24 05:29:33;;;;;;;;;;;;;;;27.43;25.99;100662.28;5064285;28;1133;-34
2023/04/24 05:31:59;;;;;;;;;;;;;;;27.61;25.34;100659.22;5084439;28;1221;-36
2023/04/24 05:34:26;;;;;;;;;;;;;;;24.88;29.27;100654.41;5079506;28;1233;-35
2023/04/24 05:36:55;;;;;;;;;;;;;;;26.40;27.95;100661.72;5080261;28;1898;-38
2023/04/24 05:39:20;;;;;;;;;;;;;;;26.82;26.29;100656.00;5100673;28;865;-36
2023/04/24 05:41:46;;;;;;;;;;;;;;;26.29;27.39;100657.59;5080941;28;1335;-39
2023/04/24 05:44:12;;;;;;;;;;;;;;;27.29;26.67;100662.13;5099728;28;1042;-37
2023/04/24 05:46:37;;;;;;;;;;;;;;;28.24;25.66;100663.25;5099078;28;1073;-38
2023/04/24 05:49:03;;;;;;;;;;;;;;;28.72;24.87;100664.53;5081195;28;1106;-38
2023/04/24 05:51:31;;;;;;;;;;;;;;;27.37;26.51;100664.72;5090693;28;1461;-40
2023/04/24 05:53:57;;;;;;;;;;;;;;;27.35;26.61;100661.38;5081389;28;1138;-37
2023/04/24 05:56:24;;;;;;;;;;;;;;;27.30;27.60;100655.69;5081006;28;1894;-39
2023/04/24 05:58:50;;;;;;;;;;;;;;;27.79;26.71;100655.28;5081039;28;1245;-37
2023/04/24 06:01:15;;;;;;;;;;;;;;;27.23;26.57;100654.75;5080843;28;1250;-38
2023/04/24 06:03:44;;;;;;;;;;;;;;;27.59;27.30;100658.56;5084343;28;1391;-35
2023/04/24 06:06:09;;;;;;;;;;;;;;;27.53;27.65;100664.72;5099118;28;979;-39
2023/04/24 06:08:35;;;;;;;;;;;;;;;27.91;27.18;100664.56;5081157;28;1193;-40
2023/04/24 06:11:01;;;;;;;;;;;;;;;27.81;27.49;100666.75;5098665;28;1162;-36
2023/04/24 06:13:27;;;;;;;;;;;;;;;27.47;27.40;100669.00;5080927;28;1341;-37
2023/04/24 06:16:18;;;;;;;;;;;;;;;28.04;27.42;100665.75;5109456;28;1976;-39
2023/04/24 06:18:50;;;;;;;;;;;;;;;27.60;28.00;100663.78;5080596;28;1284;-39
2023/04/24 06:21:16;;;;;;;;;;;;;;;27.61;27.69;100660.03;5083688;28;1098;-40
2023/04/24 06:23:41;;;;;;;;;;;;;;;27.80;28.06;100667.75;5085191;28;1316;-38
2023/04/24 06:26:08;;;;;;;;;;;;;;;27.90;28.12;100664.75;5080712;28;1150;-39
2023/04/24 06:28:33;;;;;;;;;;;;;;;27.96;27.92;100661.31;5116397;28;1152;-36
2023/04/24 06:30:59;;;;;;;;;;;;;;;27.69;28.27;100661.84;5098333;28;1118;-38
2023/04/24 06:33:24;;;;;;;;;;;;;;;27.81;28.28;100658.66;5098769;28;1142;-39
2023/04/24 06:35:50;;;;;;;;;;;;;;;27.64;28.50;100650.72;5080237;28;1976;-38
2023/04/24 06:38:15;;;;;;;;;;;;;;;27.43;27.51;100649.63;5098483;28;1065;-39
2023/04/24 06:40:41;;;;;;;;;;;;;;;27.93;28.08;100653.56;5109497;28;1141;-39
2023/04/24 06:43:06;;;;;;;;;;;;;;;27.79;26.92;100653.44;5098744;28;1070;-39
2023/04/24 06:45:32;;;;;;;;;;;;;;;27.68;27.90;100652.03;5098824;28;1205;-38
2023/04/24 06:47:57;;;;;;;;;;;;;;;27.82;28.56;100658.47;5098091;28;1192;-40
2023/04/24 06:50:23;;;;;;;;;;;;;;;27.80;28.51;100665.06;5098332;28;1154;-40
2023/04/24 06:52:49;;;;;;;;;;;;;;;27.71;28.48;100654.34;5102629;28;1140;-38
2023/04/24 06:55:16;;;;;;;;;;;;;;;27.49;28.66;100665.06;5098240;28;1981;-40
2023/04/24 06:57:42;;;;;;;;;;;;;;;28.07;28.23;100655.41;5098012;28;1205;-39
2023/04/24 07:00:09;;;;;;;;;;;;;;;27.39;29.00;100654.56;5098329;28;1097;-37
2023/04/24 07:02:35;;;;;;;;;;;;;;;27.64;28.49;100656.13;5097751;28;1035;-37
2023/04/24 07:05:01;;;;;;;;;;;;;;;27.69;28.88;100655.59;5098130;28;1034;-37
2023/04/24 07:07:27;;;;;;;;;;;;;;;27.72;28.53;100653.34;5097759;28;1078;-35
2023/04/24 07:09:53;;;;;;;;;;;;;;;27.80;28.94;100654.25;5097707;28;1170;-40
2023/04/24 07:12:21;;;;;;;;;;;;;;;27.46;28.20;100661.94;5098079;28;1118;-41
2023/04/24 07:14:47;;;;;;;;;;;;;;;27.79;28.67;100656.13;5100458;28;1142;-35
2023/04/24 07:17:13;;;;;;;;;;;;;;;27.41;29.32;100659.75;5101741;28;1987;-39
2023/04/24 07:19:42;;;;;;;;;;;;;;;27.45;28.56;100655.69;5097618;28;1213;-35
2023/04/24 07:22:08;;;;;;;;;;;;;;;27.29;28.56;100658.56;5104739;28;1069;-40
2023/04/24 07:24:33;;;;;;;;;;;;;;;27.47;28.06;100658.19;5097466;28;1050;-40
2023/04/24 07:27:00;;;;;;;;;;;;;;;27.91;28.25;100651.03;5098139;28;1093;-39
2023/04/24 07:29:26;;;;;;;;;;;;;;;27.10;28.84;100650.00;5097767;28;1122;-39
2023/04/24 07:31:53;;;;;;;;;;;;;;;27.82;27.97;100654.91;5097308;28;1146;-36
2023/04/24 07:34:19;;;;;;;;;;;;;;;27.84;28.10;100656.38;5097480;28;1244;-39
2023/04/24 07:36:45;;;;;;;;;;;;;;;27.09;29.09;100649.16;5097440;28;1910;-39
2023/04/24 07:39:12;;;;;;;;;;;;;;;27.63;28.25;100646.31;5101711;28;1078;-39
2023/04/24 07:41:38;;;;;;;;;;;;;;;27.72;27.91;100655.22;5099625;28;1101;-39
2023/04/24 07:44:03;;;;;;;;;;;;;;;27.07;28.48;100644.97;5096667;28;1047;-40
2023/04/24 07:46:30;;;;;;;;;;;;;;;27.60;28.20;100661.06;5097452;28;1114;-39
2023/04/24 07:48:55;;;;;;;;;;;;;;;27.39;28.08;100649.16;5096561;28;1034;-40
2023/04/24 07:51:21;;;;;;;;;;;;;;;27.51;28.35;100665.72;5097490;28;1071;-39
2023/04/24 07:53:46;;;;;;;;;;;;;;;27.23;28.33;100657.44;5096671;28;1020;-40
2023/04/24 07:56:12;;;;;;;;;;;;;;;27.43;27.82;100660.44;5096836;28;1905;-39
2023/04/24 07:58:37;;;;;;;;;;;;;;;27.87;27.50;100666.84;5096692;28;1069;-37
2023/04/24 08:01:03;;;;;;;;;;;;;;;27.09;28.27;100669.94;5097061;28;1082;-38
2023/04/24 08:03:29;;;;;;;;;;;;;;;27.30;27.47;100661.09;5101243;28;1103;-35
2023/04/24 08:05:54;;;;;;;;;;;;;;;27.70;27.31;100659.94;5100519;28;1107;-37
2023/04/24 08:08:20;;;;;;;;;;;;;;;27.35;27.27;100664.06;5096351;28;1070;-34
2023/04/24 08:10:46;;;;;;;;;;;;;;;27.25;27.51;100666.22;5096352;28;1069;-34
2023/04/24 08:13:11;;;;;;;;;;;;;;;27.29;26.90;100658.56;5096397;28;1122;-38
2023/04/24 08:15:37;;;;;;;;;;;;;;;27.83;26.33;100664.69;5099610;28;1909;-37
2023/04/24 08:18:02;;;;;;;;;;;;;;;27.25;27.08;100666.22;5096758;28;1066;-36
2023/04/24 08:20:28;;;;;;;;;;;;;;;27.87;26.52;100660.56;5096532;28;1205;-37
2023/04/24 08:22:54;;;;;;;;;;;;;;;27.84;26.16;100660.97;5104132;28;1224;-39
2023/04/24 08:25:20;;;;;;;;;;;;;;;27.42;27.03;100653.34;5096636;28;1411;-38
2023/04/24 08:27:45;;;;;;;;;;;;;;;27.86;26.56;100648.91;5101885;28;1066;-38
2023/04/24 08:30:11;;;;;;;;;;;;;;;27.84;26.79;100652.84;5100812;28;1089;-38
2023/04/24 08:32:37;;;;;;;;;;;;;;;27.35;27.74;100653.25;5096564;28;1193;-36
2023/04/24 08:35:02;;;;;;;;;;;;;;;27.71;27.15;100646.25;5098381;28;1031;-34
2023/04/24 08:37:28;;;;;;;;;;;;;;;27.62;27.05;100647.38;5096494;28;1975;-35
2023/04/24 08:39:54;;;;;;;;;;;;;;;28.01;26.50;100658.03;5100191;28;1046;-37
2023/04/24 08:42:19;;;;;;;;;;;;;;;27.58;27.46;100641.50;5096167;28;1193;-34
2023/04/24 08:44:45;;;;;;;;;;;;;;;27.57;27.23;100641.69;5096756;28;1140;-38
2023/04/24 08:47:11;;;;;;;;;;;;;;;27.69;27.38;100642.94;5096298;28;1161;-37
2023/04/24 08:49:37;;;;;;;;;;;;;;;27.54;27.42;100637.50;5096435;28;1057;-37
2023/04/24 08:52:02;;;;;;;;;;;;;;;27.75;26.37;100638.59;5103047;28;1217;-37
2023/04/24 08:54:28;;;;;;;;;;;;;;;27.34;26.11;100639.94;5099960;28;1077;-38
2023/04/24 08:56:54;;;;;;;;;;;;;;;27.98;25.98;100643.00;5095896;28;1913;-34
2023/04/24 08:59:19;;;;;;;;;;;;;;;27.06;25.84;100638.72;5095983;28;1181;-36
2023/04/24 09:01:45;;;;;;;;;;;;;;;27.26;26.42;100639.00;5077842;28;1147;-35
2023/04/24 09:04:11;;;;;;;;;;;;;;;27.74;26.11;100636.94;5103822;28;1070;-33
2023/04/24 09:06:37;;;;;;;;;;;;;;;27.18;27.34;100627.47;5093776;28;1197;-36
2023/04/24 09:09:05;;;;;;;;;;;;;;;27.22;25.94;100626.94;5099690;28;1108;-38
2023/04/24 09:11:32;;;;;;;;;;;;;;;27.16;26.83;100627.66;5100116;28;1089;-34
2023/04/24 09:13:58;;;;;;;;;;;;;;;27.15;25.59;100631.38;5099944;28;1074;-37
2023/04/24 09:16:24;;;;;;;;;;;;;;;27.01;26.33;100633.00;5107911;28;1913;-37
2023/04/24 09:18:50;;;;;;;;;;;;;;;27.32;26.91;100633.88;5104244;28;1077;-37
2023/04/24 09:21:15;;;;;;;;;;;;;;;27.87;25.74;100628.13;5105289;28;1078;-34
2023/04/24 09:23:41;;;;;;;;;;;;;;;26.98;25.70;100627.97;5101556;28;1120;-37
2023/04/24 09:26:06;;;;;;;;;;;;;;;27.51;25.29;100627.91;5111462;28;1065;-36
2023/04/24 09:28:33;;;;;;;;;;;;;;;27.94;25.67;100628.22;5088654;28;1209;-36
2023/04/24 09:31:08;;;;;;;;;;;;;;;27.45;25.54;100633.22;5081264;28;1202;-39
2023/04/24 09:33:34;;;;;;;;;;;;;;;27.55;25.29;100627.53;5099244;28;1030;-36
2023/04/24 09:36:00;;;;;;;;;;;;;;;27.19;25.30;100629.16;5099397;28;1975;-38
2023/04/24 09:38:31;;;;;;;;;;;;;;;27.42;25.15;100631.75;5099424;28;1140;-36
2023/04/24 09:41:06;;;;;;;;;;;;;;;27.05;26.31;100612.75;5107840;28;1055;-34
2023/04/24 09:43:32;;;;;;;;;;;;;;;27.47;26.08;100632.03;5099282;28;1132;-32
2023/04/24 09:45:58;;;;;;;;;;;;;;;28.02;25.66;100625.38;5104256;27;1077;-35
2023/04/24 09:48:33;;;;;;;;;;;;;;;27.56;25.76;100623.81;5098808;28;1100;-32
2023/04/24 09:51:00;;;;;;;;;;;;;;;27.82;23.97;100625.16;5099123;28;1374;-32
2023/04/24 09:53:26;;;;;;;;;;;;;;;27.34;24.75;100627.25;5104251;28;919;-32
2023/04/24 09:55:52;;;;;;;;;;;;;;;27.41;23.80;100627.34;5099042;28;1909;-33
2023/04/24 09:58:18;;;;;;;;;;;;;;;27.50;23.97;100622.69;5099473;28;1125;-36
2023/04/24 10:00:44;;;;;;;;;;;;;;;27.54;23.82;100618.59;5098402;28;1226;-33
2023/04/24 10:03:09;;;;;;;;;;;;;;;28.05;24.10;100633.13;5081044;28;1414;-34
2023/04/24 10:05:36;;;;;;;;;;;;;;;27.63;23.94;100617.44;5108237;28;1197;-33
2023/04/24 10:08:02;;;;;;;;;;;;;;;27.71;22.75;100627.34;5098794;28;1057;-35
2023/04/24 10:10:28;;;;;;;;;;;;;;;27.41;23.06;100626.53;5098573;28;1172;-36
2023/04/24 10:12:54;;;;;;;;;;;;;;;27.60;23.01;100609.72;5098967;28;1107;-38
2023/04/24 10:15:21;;;;;;;;;;;;;;;27.72;23.31;100611.97;5080341;28;1909;-32
2023/04/24 10:17:52;;;;;;;;;;;;;;;28.05;22.92;100613.34;5106658;28;998;-31
2023/04/24 10:20:18;;;;;;;;;;;;;;;28.06;23.24;100605.03;5098782;28;1308;-34
2023/04/24 10:22:45;;;;;;;;;;;;;;;27.83;24.75;100600.66;5107282;28;1091;-36
2023/04/24 10:25:11;;;;;;;;;;;;;;;27.80;25.17;100603.75;5098121;28;1150;-37
2023/04/24 10:27:36;;;;;;;;;;;;;;;27.51;25.66;100594.63;5098212;28;1034;-36
2023/04/24 10:30:02;;;;;;;;;;;;;;;28.06;24.59;100598.81;5083137;28;1228;-35
2023/04/24 10:32:28;;;;;;;;;;;;;;;27.95;25.18;100600.13;5098096;28;1201;-35
2023/04/24 10:34:54;;;;;;;;;;;;;;;28.38;24.42;100599.31;5098513;28;1050;-34
2023/04/24 10:37:20;;;;;;;;;;;;;;;28.05;25.62;100592.56;5098301;28;1969;-32
2023/04/24 10:39:47;;;;;;;;;;;;;;;28.25;25.42;100600.00;5098313;28;1047;-38
2023/04/24 10:42:16;;;;;;;;;;;;;;;28.40;25.67;100591.84;5099687;28;1114;-35
2023/04/24 10:44:42;;;;;;;;;;;;;;;28.06;26.07;100591.50;5097830;28;1038;-37
2023/04/24 10:47:12;;;;;;;;;;;;;;;28.09;26.04;100591.13;5097355;28;999;-33
2023/04/24 10:49:37;;;;;;;;;;;;;;;27.92;24.97;100587.84;5097424;28;1090;-34
2023/04/24 10:52:05;;;;;;;;;;;;;;;27.81;24.88;100591.88;5078459;28;1169;-35
2023/04/24 10:54:46;;;;;;;;;;;;;;;27.70;24.86;100593.25;5105558;28;892;-35
2023/04/24 10:57:17;;;;;;;;;;;;;;;27.95;24.44;100586.63;5096559;28;1972;-34
2023/04/24 10:59:43;;;;;;;;;;;;;;;27.51;28.80;100589.22;5097749;28;1102;-32
2023/04/24 11:02:09;;;;;;;;;;;;;;;27.49;30.10;100586.72;5109473;28;1042;-30
2023/04/24 11:04:35;;;;;;;;;;;;;;;27.15;31.97;100582.78;5083740;28;1206;-33
2023/04/24 11:07:00;;;;;;;;;;;;;;;27.91;27.56;100575.34;5106082;28;1126;-32
2023/04/24 11:09:26;;;;;;;;;;;;;;;27.42;28.83;100571.47;5097643;28;1062;-31
2023/04/24 11:11:52;;;;;;;;;;;;;;;27.35;27.35;100560.59;5097810;28;1141;-31
2023/04/24 11:14:17;;;;;;;;;;;;;;;27.16;27.47;100567.44;5079159;28;1425;-37
2023/04/24 11:16:46;;;;;;;;;;;;;;;27.46;28.03;100564.69;5082065;28;1976;-35
2023/04/24 11:19:16;;;;;;;;;;;;;;;27.54;28.25;100561.88;5098036;28;1037;-35
2023/04/24 11:21:55;;;;;;;;;;;;;;;27.28;27.51;100571.31;5103473;28;1018;-30
2023/04/24 11:24:30;;;;;;;;;;;;;;;27.91;27.15;100569.94;5096169;28;1010;-31
2023/04/24 11:27:05;;;;;;;;;;;;;;;25.32;27.77;100563.47;5095753;28;1107;-39
2023/04/24 11:29:40;;;;;;;;;;;;;;;24.65;27.27;100563.66;5106258;28;1137;-38
2023/04/24 11:32:19;;;;;;;;;;;;;;;24.89;26.35;100575.34;5097840;28;1061;-36
2023/04/24 11:34:47;;;;;;;;;;;;;;;23.65;26.85;100581.53;5096939;28;1073;-39
2023/04/24 11:37:13;;;;;;;;;;;;;;;23.22;29.71;100574.31;5096538;28;1918;-38
2023/04/24 11:39:39;;;;;;;;;;;;;;;23.40;29.56;100570.72;5097151;28;1062;-37
2023/04/24 11:42:06;;;;;;;;;;;;;;;26.57;25.49;100568.03;5107816;28;1145;-32
2023/04/24 11:44:31;;;;;;;;;;;;;;;26.84;26.15;100567.59;5097366;28;1079;-30
2023/04/24 11:46:58;;;;;;;;;;;;;;;27.28;25.73;100575.91;5078565;28;1110;-32
2023/04/24 11:49:23;;;;;;;;;;;;;;;27.55;25.32;100576.19;5096838;28;1147;-36
2023/04/24 11:51:49;;;;;;;;;;;;;;;27.45;25.74;100573.78;5096686;28;1219;-34
2023/04/24 11:54:15;;;;;;;;;;;;;;;27.83;25.39;100576.31;5080668;28;812;-37
2023/04/24 11:56:44;;;;;;;;;;;;;;;27.49;24.95;100570.50;5096505;28;1914;-37
2023/04/24 11:59:10;;;;;;;;;;;;;;;27.55;25.60;100563.53;5078883;28;1214;-34
2023/04/24 12:01:45;;;;;;;;;;;;;;;27.59;25.45;100561.28;5096465;28;1038;-34
2023/04/24 12:04:11;;;;;;;;;;;;;;;27.38;25.48;100552.94;5097070;28;1194;-36
2023/04/24 12:06:36;;;;;;;;;;;;;;;27.41;25.91;100550.91;5102568;28;1063;-34
2023/04/24 12:09:02;;;;;;;;;;;;;;;27.61;25.45;100548.44;5096832;28;1042;-34
2023/04/24 12:11:27;;;;;;;;;;;;;;;27.60;26.12;100539.47;5096718;28;1157;-35
2023/04/24 12:13:53;;;;;;;;;;;;;;;27.85;26.44;100539.13;5078578;28;1063;-34
2023/04/24 12:16:18;;;;;;;;;;;;;;;27.64;26.43;100537.22;5096574;28;1917;-34
2023/04/24 12:18:45;;;;;;;;;;;;;;;27.79;26.47;100534.50;5105620;28;905;-33
2023/04/24 12:21:21;;;;;;;;;;;;;;;27.85;26.66;100531.03;5098180;28;1174;-34
2023/04/24 12:23:46;;;;;;;;;;;;;;;28.19;26.21;100536.72;5096958;28;1094;-35
2023/04/24 12:26:12;;;;;;;;;;;;;;;28.15;26.37;100529.19;5096523;28;1085;-34
2023/04/24 12:28:38;;;;;;;;;;;;;;;28.28;26.45;100525.78;5078066;28;1501;-35
2023/04/24 12:31:04;;;;;;;;;;;;;;;28.40;25.99;100524.22;5096549;28;1078;-36
2023/04/24 12:33:32;;;;;;;;;;;;;;;28.16;26.37;100528.16;5096335;28;1099;-36
2023/04/24 12:35:57;;;;;;;;;;;;;;;28.13;26.53;100528.56;5096204;28;1905;-33
2023/04/24 12:38:27;;;;;;;;;;;;;;;28.38;26.20;100520.84;5080354;28;1052;-35
2023/04/24 12:41:02;;;;;;;;;;;;;;;28.22;26.45;100530.94;5102828;28;1109;-36
2023/04/24 12:43:28;;;;;;;;;;;;;;;28.27;26.74;100513.25;5103048;28;1161;-34
2023/04/24 12:45:53;;;;;;;;;;;;;;;28.38;26.71;100515.44;5103180;28;1189;-35